sensor_id;sensor_type;location;lat;lon;timestamp;pressure;altitude;pressure_sealevel;temperature;humidity
77893;BME280;67087;50.094;14.338;2023-02-26T00:01:33;97137.43;;;24.77;34.40
77893;BME280;67087;50.094;14.338;2023-02-26T00:04:00;97140.61;;;24.48;34.53
77893;BME280;67087;50.094;14.338;2023-02-26T00:06:24;97140.99;;;24.44;34.51
77893;BME280;67087;50.094;14.338;2023-02-26T00:08:48;97141.08;;;24.41;34.77
77893;BME280;67087;50.094;14.338;2023-02-26T00:11:14;97147.69;;;24.98;34.65
77893;BME280;67087;50.094;14.338;2023-02-26T00:13:41;97145.77;;;24.71;34.67
77893;BME280;67087;50.094;14.338;2023-02-26T00:16:11;97152.14;;;24.95;34.60
77893;BME280;67087;50.094;14.338;2023-02-26T00:18:29;97153.74;;;24.44;34.65
77893;BME280;67087;50.094;14.338;2023-02-26T00:20:54;97159.24;;;24.94;34.56
77893;BME280;67087;50.094;14.338;2023-02-26T00:23:19;97158.26;;;24.89;34.74
77893;BME280;67087;50.094;14.338;2023-02-26T00:25:44;97161.64;;;24.42;34.35
77893;BME280;67087;50.094;14.338;2023-02-26T00:28:10;97157.97;;;24.42;34.59
77893;BME280;67087;50.094;14.338;2023-02-26T00:30:35;97171.49;;;24.50;34.55
77893;BME280;67087;50.094;14.338;2023-02-26T00:33:00;97172.73;;;24.70;34.48
77893;BME280;67087;50.094;14.338;2023-02-26T00:35:25;97175.90;;;24.31;35.00
77893;BME280;67087;50.094;14.338;2023-02-26T00:37:57;97172.12;;;24.82;34.86
77893;BME280;67087;50.094;14.338;2023-02-26T00:40:21;97173.90;;;24.34;34.86
77893;BME280;67087;50.094;14.338;2023-02-26T00:42:41;97176.88;;;24.63;34.58
77893;BME280;67087;50.094;14.338;2023-02-26T00:45:06;97179.48;;;24.59;34.67
77893;BME280;67087;50.094;14.338;2023-02-26T00:47:36;97177.70;;;24.60;34.62
77893;BME280;67087;50.094;14.338;2023-02-26T00:50:04;97177.93;;;24.80;34.42
77893;BME280;67087;50.094;14.338;2023-02-26T00:52:27;97182.07;;;24.79;34.65
77893;BME280;67087;50.094;14.338;2023-02-26T00:54:46;97184.50;;;24.57;34.57
77893;BME280;67087;50.094;14.338;2023-02-26T00:57:11;97179.82;;;24.69;34.93
77893;BME280;67087;50.094;14.338;2023-02-26T00:59:36;97186.86;;;24.16;34.92
77893;BME280;67087;50.094;14.338;2023-02-26T01:02:01;97188.92;;;24.55;34.69
77893;BME280;67087;50.094;14.338;2023-02-26T01:04:27;97189.86;;;24.44;35.14
77893;BME280;67087;50.094;14.338;2023-02-26T01:06:54;97194.94;;;24.58;35.31
77893;BME280;67087;50.094;14.338;2023-02-26T01:09:24;97197.51;;;24.60;35.34
77893;BME280;67087;50.094;14.338;2023-02-26T01:11:42;97200.75;;;24.53;35.07
77893;BME280;67087;50.094;14.338;2023-02-26T01:14:08;97205.45;;;24.33;35.03
77893;BME280;67087;50.094;14.338;2023-02-26T01:16:37;97212.12;;;24.56;35.32
77893;BME280;67087;50.094;14.338;2023-02-26T01:19:02;97213.04;;;24.37;35.00
77893;BME280;67087;50.094;14.338;2023-02-26T01:21:25;97212.31;;;24.35;34.80
77893;BME280;67087;50.094;14.338;2023-02-26T01:23:50;97216.61;;;24.63;34.92
77893;BME280;67087;50.094;14.338;2023-02-26T01:26:16;97218.75;;;24.70;35.03
77893;BME280;67087;50.094;14.338;2023-02-26T01:28:38;97214.77;;;24.27;34.80
77893;BME280;67087;50.094;14.338;2023-02-26T01:31:06;97219.85;;;24.54;34.80
77893;BME280;67087;50.094;14.338;2023-02-26T01:33:31;97220.83;;;24.48;34.88
77893;BME280;67087;50.094;14.338;2023-02-26T01:35:55;97223.83;;;24.45;35.01
77893;BME280;67087;50.094;14.338;2023-02-26T01:38:24;97220.82;;;24.72;34.66
77893;BME280;67087;50.094;14.338;2023-02-26T01:43:13;97221.28;;;24.56;34.56
77893;BME280;67087;50.094;14.338;2023-02-26T01:45:37;97227.59;;;24.72;34.64
77893;BME280;67087;50.094;14.338;2023-02-26T01:48:03;97231.26;;;24.39;34.87
77893;BME280;67087;50.094;14.338;2023-02-26T01:50:25;97230.58;;;24.40;35.02
77893;BME280;67087;50.094;14.338;2023-02-26T01:55:17;97233.01;;;24.64;34.87
77893;BME280;67087;50.094;14.338;2023-02-26T01:57:39;97234.60;;;24.63;35.01
77893;BME280;67087;50.094;14.338;2023-02-26T02:00:06;97240.08;;;24.62;34.93
77893;BME280;67087;50.094;14.338;2023-02-26T02:02:30;97240.51;;;24.69;34.79
77893;BME280;67087;50.094;14.338;2023-02-26T02:04:55;97244.01;;;24.67;34.91
77893;BME280;67087;50.094;14.338;2023-02-26T02:07:20;97251.77;;;24.91;34.73
77893;BME280;67087;50.094;14.338;2023-02-26T02:09:45;97255.36;;;24.70;34.94
77893;BME280;67087;50.094;14.338;2023-02-26T02:12:21;97254.06;;;24.57;34.95
77893;BME280;67087;50.094;14.338;2023-02-26T02:14:43;97255.75;;;24.64;34.67
77893;BME280;67087;50.094;14.338;2023-02-26T02:17:07;97253.65;;;24.67;34.63
77893;BME280;67087;50.094;14.338;2023-02-26T02:19:42;97255.92;;;24.45;34.73
77893;BME280;67087;50.094;14.338;2023-02-26T02:22:07;97258.81;;;24.39;34.84
77893;BME280;67087;50.094;14.338;2023-02-26T02:24:22;97259.32;;;24.19;34.60
77893;BME280;67087;50.094;14.338;2023-02-26T02:26:52;97257.19;;;24.61;34.62
77893;BME280;67087;50.094;14.338;2023-02-26T02:31:34;97263.53;;;24.33;34.49
77893;BME280;67087;50.094;14.338;2023-02-26T02:34:01;97263.07;;;24.29;34.94
77893;BME280;67087;50.094;14.338;2023-02-26T02:36:26;97267.56;;;24.55;34.70
77893;BME280;67087;50.094;14.338;2023-02-26T02:38:50;97271.04;;;24.56;34.69
77893;BME280;67087;50.094;14.338;2023-02-26T02:41:15;97272.86;;;24.53;34.54
77893;BME280;67087;50.094;14.338;2023-02-26T02:43:38;97271.57;;;24.48;34.86
77893;BME280;67087;50.094;14.338;2023-02-26T02:46:05;97275.15;;;24.44;34.84
77893;BME280;67087;50.094;14.338;2023-02-26T02:48:31;97282.98;;;24.56;34.82
77893;BME280;67087;50.094;14.338;2023-02-26T02:50:56;97286.03;;;24.57;34.87
77893;BME280;67087;50.094;14.338;2023-02-26T02:53:22;97285.33;;;24.19;35.08
77893;BME280;67087;50.094;14.338;2023-02-26T02:55:47;97289.53;;;24.48;34.96
77893;BME280;67087;50.094;14.338;2023-02-26T02:58:11;97292.51;;;24.23;34.57
77893;BME280;67087;50.094;14.338;2023-02-26T03:00:37;97297.22;;;24.30;34.58
77893;BME280;67087;50.094;14.338;2023-02-26T03:03:01;97298.79;;;24.45;34.88
77893;BME280;67087;50.094;14.338;2023-02-26T03:05:24;97301.08;;;24.44;34.72
77893;BME280;67087;50.094;14.338;2023-02-26T03:07:51;97309.81;;;24.18;34.83
77893;BME280;67087;50.094;14.338;2023-02-26T03:10:14;97307.53;;;24.42;34.99
77893;BME280;67087;50.094;14.338;2023-02-26T03:12:39;97312.29;;;24.47;34.67
77893;BME280;67087;50.094;14.338;2023-02-26T03:15:05;97318.03;;;24.50;34.52
77893;BME280;67087;50.094;14.338;2023-02-26T03:17:35;97316.78;;;24.43;34.98
77893;BME280;67087;50.094;14.338;2023-02-26T03:20:05;97320.54;;;24.54;34.78
77893;BME280;67087;50.094;14.338;2023-02-26T03:22:26;97324.37;;;24.53;34.80
77893;BME280;67087;50.094;14.338;2023-02-26T03:24:48;97329.78;;;24.57;34.81
77893;BME280;67087;50.094;14.338;2023-02-26T03:27:14;97337.75;;;24.53;34.95
77893;BME280;67087;50.094;14.338;2023-02-26T03:29:39;97336.01;;;24.34;34.71
77893;BME280;67087;50.094;14.338;2023-02-26T03:32:04;97346.69;;;24.60;34.64
77893;BME280;67087;50.094;14.338;2023-02-26T03:34:29;97353.08;;;24.36;34.48
77893;BME280;67087;50.094;14.338;2023-02-26T03:36:53;97357.04;;;24.58;34.48
77893;BME280;67087;50.094;14.338;2023-02-26T03:39:18;97356.24;;;24.34;34.26
77893;BME280;67087;50.094;14.338;2023-02-26T03:41:44;97359.02;;;24.49;34.52
77893;BME280;67087;50.094;14.338;2023-02-26T03:44:11;97361.99;;;24.47;34.36
77893;BME280;67087;50.094;14.338;2023-02-26T03:46:34;97365.58;;;24.63;34.33
77893;BME280;67087;50.094;14.338;2023-02-26T03:49:00;97367.38;;;24.04;34.36
77893;BME280;67087;50.094;14.338;2023-02-26T03:51:23;97369.85;;;24.60;34.24
77893;BME280;67087;50.094;14.338;2023-02-26T03:53:50;97370.51;;;24.49;34.50
77893;BME280;67087;50.094;14.338;2023-02-26T03:56:15;97372.07;;;24.45;34.66
77893;BME280;67087;50.094;14.338;2023-02-26T03:58:36;97373.91;;;24.43;34.71
77893;BME280;67087;50.094;14.338;2023-02-26T04:01:05;97377.60;;;24.16;34.79
77893;BME280;67087;50.094;14.338;2023-02-26T04:03:31;97382.31;;;24.43;34.66
77893;BME280;67087;50.094;14.338;2023-02-26T04:05:53;97383.79;;;24.20;34.96
77893;BME280;67087;50.094;14.338;2023-02-26T04:08:17;97388.27;;;24.42;34.91
77893;BME280;67087;50.094;14.338;2023-02-26T04:10:46;97391.77;;;24.44;34.97
77893;BME280;67087;50.094;14.338;2023-02-26T04:13:08;97392.67;;;24.19;34.83
77893;BME280;67087;50.094;14.338;2023-02-26T04:15:33;97395.15;;;24.43;34.76
77893;BME280;67087;50.094;14.338;2023-02-26T04:17:57;97399.39;;;24.32;35.06
77893;BME280;67087;50.094;14.338;2023-02-26T04:20:23;97399.11;;;24.47;34.81
77893;BME280;67087;50.094;14.338;2023-02-26T04:22:48;97403.18;;;24.12;35.03
77893;BME280;67087;50.094;14.338;2023-02-26T04:25:13;97400.65;;;24.42;34.95
77893;BME280;67087;50.094;14.338;2023-02-26T04:27:38;97402.72;;;24.19;34.83
77893;BME280;67087;50.094;14.338;2023-02-26T04:30:04;97404.68;;;24.34;34.90
77893;BME280;67087;50.094;14.338;2023-02-26T04:32:28;97408.10;;;24.44;34.77
77893;BME280;67087;50.094;14.338;2023-02-26T04:34:53;97408.56;;;24.36;34.97
77893;BME280;67087;50.094;14.338;2023-02-26T04:37:19;97406.47;;;24.42;34.87
77893;BME280;67087;50.094;14.338;2023-02-26T04:39:44;97408.28;;;24.45;34.74
77893;BME280;67087;50.094;14.338;2023-02-26T04:42:09;97411.77;;;24.37;35.04
77893;BME280;67087;50.094;14.338;2023-02-26T04:44:34;97414.34;;;24.37;35.00
77893;BME280;67087;50.094;14.338;2023-02-26T04:46:59;97413.43;;;24.37;34.98
77893;BME280;67087;50.094;14.338;2023-02-26T04:49:24;97416.95;;;24.29;35.15
77893;BME280;67087;50.094;14.338;2023-02-26T04:51:49;97424.46;;;24.33;35.16
77893;BME280;67087;50.094;14.338;2023-02-26T04:54:15;97427.32;;;24.07;35.26
77893;BME280;67087;50.094;14.338;2023-02-26T04:56:40;97430.61;;;23.80;35.23
77893;BME280;67087;50.094;14.338;2023-02-26T04:59:05;97433.41;;;24.11;35.08
77893;BME280;67087;50.094;14.338;2023-02-26T05:01:30;97436.01;;;24.34;35.25
77893;BME280;67087;50.094;14.338;2023-02-26T05:03:55;97435.80;;;24.39;35.18
77893;BME280;67087;50.094;14.338;2023-02-26T05:06:21;97439.39;;;24.37;35.12
77893;BME280;67087;50.094;14.338;2023-02-26T05:08:45;97445.99;;;24.11;34.87
77893;BME280;67087;50.094;14.338;2023-02-26T05:11:11;97446.89;;;24.29;35.03
77893;BME280;67087;50.094;14.338;2023-02-26T05:13:36;97449.58;;;24.18;34.90
77893;BME280;67087;50.094;14.338;2023-02-26T05:16:01;97451.10;;;24.36;34.89
77893;BME280;67087;50.094;14.338;2023-02-26T05:18:26;97448.58;;;24.06;35.09
77893;BME280;67087;50.094;14.338;2023-02-26T05:20:52;97451.25;;;24.28;35.26
77893;BME280;67087;50.094;14.338;2023-02-26T05:23:16;97453.03;;;24.26;35.22
77893;BME280;67087;50.094;14.338;2023-02-26T05:25:41;97458.30;;;24.33;35.30
77893;BME280;67087;50.094;14.338;2023-02-26T05:28:06;97457.75;;;24.39;35.26
77893;BME280;67087;50.094;14.338;2023-02-26T05:30:32;97460.89;;;24.38;35.19
77893;BME280;67087;50.094;14.338;2023-02-26T05:32:57;97461.02;;;24.28;35.13
77893;BME280;67087;50.094;14.338;2023-02-26T05:35:22;97464.23;;;24.60;35.56
77893;BME280;67087;50.094;14.338;2023-02-26T05:37:47;97468.54;;;24.68;35.65
77893;BME280;67087;50.094;14.338;2023-02-26T05:40:12;97471.97;;;24.28;35.67
77893;BME280;67087;50.094;14.338;2023-02-26T05:42:38;97481.27;;;24.86;35.81
77893;BME280;67087;50.094;14.338;2023-02-26T05:45:03;97484.13;;;24.92;35.62
77893;BME280;67087;50.094;14.338;2023-02-26T05:47:28;97492.16;;;24.61;36.02
77893;BME280;67087;50.094;14.338;2023-02-26T05:49:53;97490.26;;;24.59;35.84
77893;BME280;67087;50.094;14.338;2023-02-26T05:52:18;97498.77;;;24.82;35.90
77893;BME280;67087;50.094;14.338;2023-02-26T05:54:43;97504.74;;;24.96;35.26
77893;BME280;67087;50.094;14.338;2023-02-26T05:57:08;97510.62;;;25.04;35.48
77893;BME280;67087;50.094;14.338;2023-02-26T05:59:33;97520.85;;;25.36;35.52
77893;BME280;67087;50.094;14.338;2023-02-26T06:01:58;97521.48;;;25.39;35.36
77893;BME280;67087;50.094;14.338;2023-02-26T06:04:24;97528.65;;;25.32;35.17
77893;BME280;67087;50.094;14.338;2023-02-26T06:06:48;97532.06;;;24.73;35.94
77893;BME280;67087;50.094;14.338;2023-02-26T06:09:14;97536.86;;;24.62;35.99
77893;BME280;67087;50.094;14.338;2023-02-26T06:11:39;97539.00;;;24.96;35.83
77893;BME280;67087;50.094;14.338;2023-02-26T06:14:04;97543.11;;;24.91;36.24
77893;BME280;67087;50.094;14.338;2023-02-26T06:16:29;97547.49;;;24.69;36.23
77893;BME280;67087;50.094;14.338;2023-02-26T06:18:54;97554.69;;;25.13;36.32
77893;BME280;67087;50.094;14.338;2023-02-26T06:21:19;97559.37;;;25.28;36.06
77893;BME280;67087;50.094;14.338;2023-02-26T06:23:44;97567.53;;;24.84;36.13
77893;BME280;67087;50.094;14.338;2023-02-26T06:26:09;97572.73;;;25.27;36.08
77893;BME280;67087;50.094;14.338;2023-02-26T06:28:35;97575.13;;;24.86;36.10
77893;BME280;67087;50.094;14.338;2023-02-26T06:31:00;97583.50;;;25.09;36.41
77893;BME280;67087;50.094;14.338;2023-02-26T06:33:25;97588.92;;;25.04;35.89
77893;BME280;67087;50.094;14.338;2023-02-26T06:35:50;97594.73;;;24.88;36.44
77893;BME280;67087;50.094;14.338;2023-02-26T06:38:16;97595.42;;;25.48;35.80
77893;BME280;67087;50.094;14.338;2023-02-26T06:40:40;97597.27;;;24.84;36.67
77893;BME280;67087;50.094;14.338;2023-02-26T06:43:05;97598.14;;;25.19;36.13
77893;BME280;67087;50.094;14.338;2023-02-26T06:45:31;97603.12;;;25.03;36.07
77893;BME280;67087;50.094;14.338;2023-02-26T06:47:56;97612.66;;;24.91;37.12
77893;BME280;67087;50.094;14.338;2023-02-26T06:50:21;97617.15;;;24.99;35.36
77893;BME280;67087;50.094;14.338;2023-02-26T06:52:46;97619.57;;;25.41;33.92
77893;BME280;67087;50.094;14.338;2023-02-26T06:55:12;97625.42;;;24.90;34.32
77893;BME280;67087;50.094;14.338;2023-02-26T06:57:37;97632.58;;;24.94;34.85
77893;BME280;67087;50.094;14.338;2023-02-26T07:00:03;97634.58;;;25.00;35.28
77893;BME280;67087;50.094;14.338;2023-02-26T07:02:27;97641.91;;;25.04;35.48
77893;BME280;67087;50.094;14.338;2023-02-26T07:04:52;97645.38;;;25.06;35.61
77893;BME280;67087;50.094;14.338;2023-02-26T07:07:17;97647.00;;;25.44;35.89
77893;BME280;67087;50.094;14.338;2023-02-26T07:09:42;97652.75;;;25.14;35.53
77893;BME280;67087;50.094;14.338;2023-02-26T07:12:07;97654.53;;;25.53;35.84
77893;BME280;67087;50.094;14.338;2023-02-26T07:14:33;97656.89;;;25.26;35.49
77893;BME280;67087;50.094;14.338;2023-02-26T07:16:58;97662.02;;;25.07;35.76
77893;BME280;67087;50.094;14.338;2023-02-26T07:19:23;97659.33;;;25.29;35.73
77893;BME280;67087;50.094;14.338;2023-02-26T07:21:48;97663.16;;;25.52;35.17
77893;BME280;67087;50.094;14.338;2023-02-26T07:24:13;97670.95;;;25.58;35.02
77893;BME280;67087;50.094;14.338;2023-02-26T07:26:38;97677.07;;;25.52;35.65
77893;BME280;67087;50.094;14.338;2023-02-26T07:29:03;97677.57;;;25.61;35.36
77893;BME280;67087;50.094;14.338;2023-02-26T07:31:28;97681.18;;;25.22;35.71
77893;BME280;67087;50.094;14.338;2023-02-26T07:33:54;97687.82;;;25.40;35.89
77893;BME280;67087;50.094;14.338;2023-02-26T07:36:19;97694.27;;;25.13;35.76
77893;BME280;67087;50.094;14.338;2023-02-26T07:38:44;97697.21;;;25.10;36.08
77893;BME280;67087;50.094;14.338;2023-02-26T07:41:09;97697.81;;;25.08;36.37
77893;BME280;67087;50.094;14.338;2023-02-26T07:43:34;97704.15;;;24.87;36.79
77893;BME280;67087;50.094;14.338;2023-02-26T07:45:59;97706.59;;;25.12;36.36
77893;BME280;67087;50.094;14.338;2023-02-26T07:48:24;97711.59;;;25.35;36.25
77893;BME280;67087;50.094;14.338;2023-02-26T07:50:50;97709.11;;;25.19;36.29
77893;BME280;67087;50.094;14.338;2023-02-26T07:53:14;97719.23;;;24.92;36.71
77893;BME280;67087;50.094;14.338;2023-02-26T07:55:40;97718.17;;;25.16;36.43
77893;BME280;67087;50.094;14.338;2023-02-26T07:58:05;97723.57;;;24.92;36.08
77893;BME280;67087;50.094;14.338;2023-02-26T08:00:30;97724.84;;;25.21;36.09
77893;BME280;67087;50.094;14.338;2023-02-26T08:02:55;97726.40;;;24.62;37.18
77893;BME280;67087;50.094;14.338;2023-02-26T08:05:21;97729.02;;;24.95;36.40
77893;BME280;67087;50.094;14.338;2023-02-26T08:07:46;97731.15;;;25.25;36.28
77893;BME280;67087;50.094;14.338;2023-02-26T08:10:11;97734.57;;;25.17;36.59
77893;BME280;67087;50.094;14.338;2023-02-26T08:12:37;97743.26;;;25.09;36.13
77893;BME280;67087;50.094;14.338;2023-02-26T08:15:02;97742.84;;;25.03;36.51
77893;BME280;67087;50.094;14.338;2023-02-26T08:17:27;97742.98;;;25.05;36.37
77893;BME280;67087;50.094;14.338;2023-02-26T08:19:52;97748.92;;;24.94;36.62
77893;BME280;67087;50.094;14.338;2023-02-26T08:22:17;97744.70;;;25.39;36.00
77893;BME280;67087;50.094;14.338;2023-02-26T08:24:42;97748.05;;;24.94;36.62
77893;BME280;67087;50.094;14.338;2023-02-26T08:27:07;97752.22;;;24.67;36.85
77893;BME280;67087;50.094;14.338;2023-02-26T08:29:33;97758.70;;;24.56;36.07
77893;BME280;67087;50.094;14.338;2023-02-26T08:31:58;97762.10;;;24.82;36.57
77893;BME280;67087;50.094;14.338;2023-02-26T08:34:23;97762.43;;;24.26;36.49
77893;BME280;67087;50.094;14.338;2023-02-26T08:36:48;97768.49;;;24.09;36.72
77893;BME280;67087;50.094;14.338;2023-02-26T08:39:13;97771.28;;;24.26;36.96
77893;BME280;67087;50.094;14.338;2023-02-26T08:41:39;97774.10;;;24.48;36.40
77893;BME280;67087;50.094;14.338;2023-02-26T08:44:04;97779.73;;;25.19;36.04
77893;BME280;67087;50.094;14.338;2023-02-26T08:46:29;97784.99;;;24.94;36.03
77893;BME280;67087;50.094;14.338;2023-02-26T08:48:54;97786.33;;;25.23;37.12
77893;BME280;67087;50.094;14.338;2023-02-26T08:51:20;97790.71;;;25.48;37.02
77893;BME280;67087;50.094;14.338;2023-02-26T08:53:45;97794.13;;;25.37;37.04
77893;BME280;67087;50.094;14.338;2023-02-26T08:56:10;97800.26;;;25.29;37.01
77893;BME280;67087;50.094;14.338;2023-02-26T08:58:35;97800.42;;;25.54;36.67
77893;BME280;67087;50.094;14.338;2023-02-26T09:01:00;97808.28;;;25.65;36.97
77893;BME280;67087;50.094;14.338;2023-02-26T09:03:26;97804.89;;;25.80;39.53
77893;BME280;67087;50.094;14.338;2023-02-26T09:05:51;97812.80;;;26.04;40.79
77893;BME280;67087;50.094;14.338;2023-02-26T09:08:17;97808.04;;;25.03;39.54
77893;BME280;67087;50.094;14.338;2023-02-26T09:10:42;97817.68;;;24.95;40.29
77893;BME280;67087;50.094;14.338;2023-02-26T09:13:07;97820.77;;;25.36;40.09
77893;BME280;67087;50.094;14.338;2023-02-26T09:15:32;97826.05;;;25.41;39.60
77893;BME280;67087;50.094;14.338;2023-02-26T09:17:58;97837.94;;;25.44;38.76
77893;BME280;67087;50.094;14.338;2023-02-26T09:20:23;97837.70;;;25.23;39.31
77893;BME280;67087;50.094;14.338;2023-02-26T09:22:48;97834.91;;;25.00;39.42
77893;BME280;67087;50.094;14.338;2023-02-26T09:25:13;97835.73;;;24.93;39.51
77893;BME280;67087;50.094;14.338;2023-02-26T09:27:38;97840.06;;;24.47;39.97
77893;BME280;67087;50.094;14.338;2023-02-26T09:30:05;97842.29;;;24.22;40.31
77893;BME280;67087;50.094;14.338;2023-02-26T09:32:29;97847.08;;;25.39;38.61
77893;BME280;67087;50.094;14.338;2023-02-26T09:34:55;97849.98;;;24.79;39.74
77893;BME280;67087;50.094;14.338;2023-02-26T09:37:21;97842.21;;;25.05;38.23
77893;BME280;67087;50.094;14.338;2023-02-26T09:39:46;97845.77;;;24.88;37.05
77893;BME280;67087;50.094;14.338;2023-02-26T09:42:21;97839.28;;;25.08;37.08
77893;BME280;67087;50.094;14.338;2023-02-26T09:44:37;97840.40;;;24.93;36.68
77893;BME280;67087;50.094;14.338;2023-02-26T09:47:05;97839.05;;;24.78;36.82
77893;BME280;67087;50.094;14.338;2023-02-26T09:49:38;97850.54;;;24.69;37.27
77893;BME280;67087;50.094;14.338;2023-02-26T09:51:57;97848.88;;;24.57;37.28
77893;BME280;67087;50.094;14.338;2023-02-26T09:54:22;97854.28;;;24.20;36.41
77893;BME280;67087;50.094;14.338;2023-02-26T09:56:46;97860.55;;;24.59;35.94
77893;BME280;67087;50.094;14.338;2023-02-26T09:59:11;97865.95;;;24.42;36.19
77893;BME280;67087;50.094;14.338;2023-02-26T10:01:40;97871.11;;;24.57;36.39
77893;BME280;67087;50.094;14.338;2023-02-26T10:04:09;97878.07;;;24.23;35.56
77893;BME280;67087;50.094;14.338;2023-02-26T10:06:29;97875.19;;;24.02;35.59
77893;BME280;67087;50.094;14.338;2023-02-26T10:09:12;97872.53;;;24.54;35.88
77893;BME280;67087;50.094;14.338;2023-02-26T10:11:25;97886.31;;;24.29;35.23
77893;BME280;67087;50.094;14.338;2023-02-26T10:13:46;97880.94;;;24.65;34.80
77893;BME280;67087;50.094;14.338;2023-02-26T10:16:12;97881.49;;;24.31;35.64
77893;BME280;67087;50.094;14.338;2023-02-26T10:18:38;97892.32;;;24.56;35.22
77893;BME280;67087;50.094;14.338;2023-02-26T10:21:05;97886.52;;;24.10;35.73
77893;BME280;67087;50.094;14.338;2023-02-26T10:23:30;97889.74;;;24.65;35.87
77893;BME280;67087;50.094;14.338;2023-02-26T10:25:53;97897.77;;;24.43;35.20
77893;BME280;67087;50.094;14.338;2023-02-26T10:28:33;97898.98;;;24.58;34.84
77893;BME280;67087;50.094;14.338;2023-02-26T10:30:44;97900.13;;;24.51;34.66
77893;BME280;67087;50.094;14.338;2023-02-26T10:33:13;97899.48;;;24.51;35.02
77893;BME280;67087;50.094;14.338;2023-02-26T10:35:39;97906.30;;;24.45;34.27
77893;BME280;67087;50.094;14.338;2023-02-26T10:37:58;97910.44;;;24.38;35.15
77893;BME280;67087;50.094;14.338;2023-02-26T10:40:28;97915.32;;;24.25;34.69
77893;BME280;67087;50.094;14.338;2023-02-26T10:42:49;97916.50;;;24.25;34.33
77893;BME280;67087;50.094;14.338;2023-02-26T10:45:27;97919.18;;;24.29;34.41
77893;BME280;67087;50.094;14.338;2023-02-26T10:47:42;97924.90;;;23.71;34.37
77893;BME280;67087;50.094;14.338;2023-02-26T10:50:05;97918.27;;;24.04;33.97
77893;BME280;67087;50.094;14.338;2023-02-26T10:52:30;97924.35;;;24.14;33.66
77893;BME280;67087;50.094;14.338;2023-02-26T10:55:22;97924.49;;;24.21;33.92
77893;BME280;67087;50.094;14.338;2023-02-26T10:57:23;97921.67;;;23.98;33.57
77893;BME280;67087;50.094;14.338;2023-02-26T10:59:43;97926.24;;;24.24;34.18
77893;BME280;67087;50.094;14.338;2023-02-26T11:04:34;97930.48;;;24.15;33.62
77893;BME280;67087;50.094;14.338;2023-02-26T11:07:01;97930.41;;;24.12;33.57
77893;BME280;67087;50.094;14.338;2023-02-26T11:09:26;97938.40;;;24.14;33.33
77893;BME280;67087;50.094;14.338;2023-02-26T11:11:52;97932.10;;;24.10;33.59
77893;BME280;67087;50.094;14.338;2023-02-26T11:14:14;97938.93;;;24.14;33.64
77893;BME280;67087;50.094;14.338;2023-02-26T11:16:46;97940.56;;;24.11;33.21
77893;BME280;67087;50.094;14.338;2023-02-26T11:19:05;97941.07;;;24.02;33.04
77893;BME280;67087;50.094;14.338;2023-02-26T11:21:35;97934.87;;;24.03;33.43
77893;BME280;67087;50.094;14.338;2023-02-26T11:23:59;97941.40;;;24.02;33.41
77893;BME280;67087;50.094;14.338;2023-02-26T11:26:25;97945.22;;;23.94;33.08
77893;BME280;67087;50.094;14.338;2023-02-26T11:28:47;97947.85;;;24.01;33.35
77893;BME280;67087;50.094;14.338;2023-02-26T11:31:14;97947.84;;;23.97;33.07
77893;BME280;67087;50.094;14.338;2023-02-26T11:33:38;97947.35;;;23.99;33.02
77893;BME280;67087;50.094;14.338;2023-02-26T11:36:07;97950.97;;;24.06;32.87
77893;BME280;67087;50.094;14.338;2023-02-26T11:38:27;97953.10;;;23.97;32.77
77893;BME280;67087;50.094;14.338;2023-02-26T11:40:54;97956.60;;;23.92;32.70
77893;BME280;67087;50.094;14.338;2023-02-26T11:43:19;97962.05;;;23.99;32.75
77893;BME280;67087;50.094;14.338;2023-02-26T11:45:44;97966.36;;;24.04;32.49
77893;BME280;67087;50.094;14.338;2023-02-26T11:48:11;97958.78;;;23.90;32.84
77893;BME280;67087;50.094;14.338;2023-02-26T11:50:39;97967.09;;;23.93;32.67
77893;BME280;67087;50.094;14.338;2023-02-26T11:53:03;97964.87;;;23.71;32.46
77893;BME280;67087;50.094;14.338;2023-02-26T11:55:29;97969.50;;;23.89;32.65
77893;BME280;67087;50.094;14.338;2023-02-26T11:57:50;97966.25;;;23.89;32.32
77893;BME280;67087;50.094;14.338;2023-02-26T12:00:19;97971.22;;;23.85;32.19
77893;BME280;67087;50.094;14.338;2023-02-26T12:02:39;97969.79;;;23.88;32.19
77893;BME280;67087;50.094;14.338;2023-02-26T12:05:05;97971.41;;;23.82;32.15
77893;BME280;67087;50.094;14.338;2023-02-26T12:07:29;97966.82;;;23.84;32.33
77893;BME280;67087;50.094;14.338;2023-02-26T12:09:53;97971.97;;;23.85;32.14
77893;BME280;67087;50.094;14.338;2023-02-26T12:12:26;97965.98;;;23.73;32.28
77893;BME280;67087;50.094;14.338;2023-02-26T12:14:55;97970.82;;;23.81;32.30
77893;BME280;67087;50.094;14.338;2023-02-26T12:17:23;97984.74;;;24.32;32.79
77893;BME280;67087;50.094;14.338;2023-02-26T12:19:40;97987.92;;;24.06;33.61
77893;BME280;67087;50.094;14.338;2023-02-26T12:22:11;97990.88;;;24.42;33.76
77893;BME280;67087;50.094;14.338;2023-02-26T12:24:48;97992.62;;;24.15;33.72
77893;BME280;67087;50.094;14.338;2023-02-26T12:26:53;97994.25;;;24.47;33.95
77893;BME280;67087;50.094;14.338;2023-02-26T12:29:31;97992.12;;;24.47;33.87
77893;BME280;67087;50.094;14.338;2023-02-26T12:31:56;97995.08;;;24.46;34.59
77893;BME280;67087;50.094;14.338;2023-02-26T12:34:16;97999.10;;;24.59;34.35
77893;BME280;67087;50.094;14.338;2023-02-26T12:36:42;97994.53;;;24.60;34.43
77893;BME280;67087;50.094;14.338;2023-02-26T12:39:03;97994.10;;;24.94;34.04
77893;BME280;67087;50.094;14.338;2023-02-26T12:41:33;97996.04;;;24.59;34.30
77893;BME280;67087;50.094;14.338;2023-02-26T12:43:48;97999.24;;;25.06;33.73
77893;BME280;67087;50.094;14.338;2023-02-26T12:46:23;97995.80;;;25.16;33.96
77893;BME280;67087;50.094;14.338;2023-02-26T12:51:08;97995.13;;;25.54;33.96